»·PEaware :: N555TT 8W5-KYKM

N555TT :: 8W5-KYKM

FLIGHT INFORMATION

Flight Status: Arrived
Operator: Privately registered:
United States
More flights under this callsign
Pilot: Chad L. (27474)
Aircraft: CIRRUS VISIONJET
(SF50)
More flights by this aircraft type
Origin: 8W5 Apex Airpark
United States
Destination: KYKM Yakima Air Term/Mcallister
United States
More flights between these airports :: More routes between these airports
Route: SEA V4 GLEED
File this flight plan on PilotEdge
Remarks:
Altitude:
(Current/Filed)
17,000ft
Speed:
(Current/Filed)
250kts
Departed: 24-May-20 06:27 PM
Arrived: 24-May-20 07:02 PM
Distance/Time
Traveled:
111nm/0:35
Distance/Time
To Go:
Arrived

Flight Plot

Page will automatically refresh every two minutes.


Map Options




Map Legend


Flown Route
Filed Route
Departure Airport
Arrival Airport
Navaid (VOR, NDB)
Fix

Horizontal Profiles

Position Reports

Time Latitude Longitude Heading Altitude Ground
Speed
24-May-20 18:20 47.654068 -122.734046 90 509ft 0kts
24-May-20 18:21 47.654068 -122.734046 90 509ft 0kts
24-May-20 18:22 47.654068 -122.734046 90 509ft 0kts
24-May-20 18:23 47.654068 -122.734046 90 509ft 0kts
24-May-20 18:24 47.654068 -122.733898 90 511ft 6kts
24-May-20 18:25 47.653151 -122.733645 256 509ft 2kts
24-May-20 18:27 47.668308 -122.729965 12 851ft 138kts
24-May-20 18:28 47.640936 -122.676236 157 1548ft 234kts
24-May-20 18:29 47.584605 -122.642643 155 3668ft 216kts
24-May-20 18:30 47.548893 -122.573723 124 6850ft 206kts
24-May-20 18:31 47.521590 -122.510274 123 10224ft 161kts
24-May-20 18:32 47.502241 -122.465070 126 12501ft 115kts
24-May-20 18:33 47.482455 -122.419178 124 13600ft 157kts
24-May-20 18:34 47.457007 -122.359873 123 15152ft 185kts
24-May-20 18:35 47.427159 -122.291322 125 16796ft 205kts
24-May-20 18:36 47.389436 -122.207280 124 17008ft 284kts
24-May-20 18:37 47.342785 -122.103760 124 17001ft 315kts
24-May-20 18:38 47.293273 -121.994355 124 17004ft 326kts
24-May-20 18:39 47.242348 -121.882301 123 17007ft 330kts
24-May-20 18:40 47.190931 -121.769578 123 17006ft 332kts
24-May-20 18:41 47.139182 -121.656609 123 17011ft 333kts
24-May-20 18:42 47.086798 -121.542725 123 16985ft 334kts
24-May-20 18:42 47.043083 -121.448086 123 16985ft 334kts
24-May-20 18:44 46.984044 -121.320723 124 15690ft 307kts
24-May-20 18:44 46.944983 -121.236825 124 13999ft 286kts
24-May-20 18:45 46.902270 -121.140629 119 11975ft 273kts
24-May-20 18:47 46.859318 -121.028370 119 9665ft 282kts
24-May-20 18:47 46.827260 -120.944374 119 8065ft 282kts
24-May-20 18:48 46.791216 -120.849346 119 8007ft 257kts
24-May-20 18:49 46.756912 -120.758710 119 7807ft 254kts
24-May-20 18:50 46.722655 -120.667395 119 6009ft 251kts
24-May-20 18:51 46.692792 -120.586704 119 5998ft 208kts
24-May-20 18:52 46.666988 -120.516439 119 5999ft 190kts
24-May-20 18:53 46.642208 -120.448784 118 6001ft 192kts
24-May-20 18:54 46.616760 -120.380032 118 5998ft 186kts
24-May-20 18:55 46.594378 -120.319427 119 5998ft 167kts
24-May-20 18:56 46.554556 -120.302933 196 4754ft 192kts
24-May-20 18:57 46.533206 -120.365190 253 3792ft 151kts
24-May-20 18:58 46.538169 -120.422585 288 2854ft 177kts
24-May-20 18:59 46.552699 -120.480395 290 1809ft 104kts
24-May-20 19:00 46.560746 -120.512425 290 1364ft 77kts
24-May-20 19:01 46.566957 -120.537304 292 1062ft 6kts
24-May-20 19:02 46.569059 -120.542115 17 1071ft 0kts
24-May-20 19:03 46.570277 -120.542797 177 1074ft 0kts
24-May-20 19:04 46.570277 -120.542797 177 1074ft 0kts
24-May-20 19:05 46.570277 -120.542797 177 1074ft 0kts
24-May-20 19:06 46.570277 -120.542797 177 1074ft 0kts
24-May-20 19:07 46.570277 -120.542797 177 1074ft 0kts
24-May-20 19:08 46.570277 -120.542797 177 1074ft 0kts
24-May-20 19:09 46.570277 -120.542797 177 1074ft 0kts

Navigation Log

Ident Type
Flight plan parsing failed, navigation log unavailable